»·PEaware :: N206DS KLAX-KSAN

N206DS :: KLAX-KSAN

FLIGHT INFORMATION

Flight Status: Arrived
Operator: Privately registered:
United States
More flights under this callsign
Pilot: Anonymous 26047 (26047)
Aircraft: BEECH AIRCRAFT BARON
(BE58)
More flights by this aircraft type
Origin: KLAX Los Angeles Intl
United States
Destination: KSAN San Diego Intl-Lindbergh
United States
More flights between these airports :: More routes between these airports
Route: +
File this flight plan on PilotEdge
Remarks:
Altitude:
(Current/Filed)
7,500ft
Speed:
(Current/Filed)
180kts
Departed: 07-Feb-20 06:52 PM
Arrived: 07-Feb-20 07:36 PM
Distance/Time
Traveled:
95nm/0:44
Distance/Time
To Go:
Arrived

Flight Plot

Page will automatically refresh every two minutes.


Map Options




Map Legend


Flown Route
Filed Route
Departure Airport
Arrival Airport
Navaid (VOR, NDB)
Fix

Horizontal Profiles

Position Reports

Time Latitude Longitude Heading Altitude Ground
Speed
07-Feb-20 18:15 33.941693 -118.379699 143 129ft 0kts
07-Feb-20 18:16 33.941693 -118.379699 143 129ft 0kts
07-Feb-20 18:17 33.941693 -118.379699 143 129ft 0kts
07-Feb-20 18:18 33.941693 -118.379699 143 129ft 0kts
07-Feb-20 18:19 33.941693 -118.379699 143 129ft 0kts
07-Feb-20 18:20 33.941693 -118.379699 143 129ft 0kts
07-Feb-20 18:21 33.941693 -118.379699 143 129ft 0kts
07-Feb-20 18:22 33.941693 -118.379699 143 129ft 0kts
07-Feb-20 18:23 33.941693 -118.379699 143 129ft 0kts
07-Feb-20 18:24 33.941693 -118.379699 143 129ft 0kts
07-Feb-20 18:25 33.941693 -118.379699 143 129ft 0kts
07-Feb-20 18:26 33.941693 -118.379699 143 129ft 0kts
07-Feb-20 18:27 33.941693 -118.379699 143 129ft 0kts
07-Feb-20 18:28 33.941693 -118.379699 143 129ft 0kts
07-Feb-20 18:29 33.941693 -118.379699 143 129ft 0kts
07-Feb-20 18:30 33.941693 -118.379699 143 129ft 0kts
07-Feb-20 18:31 33.941693 -118.379699 143 129ft 0kts
07-Feb-20 18:32 33.941693 -118.379699 143 129ft 0kts
07-Feb-20 18:33 33.941693 -118.379699 143 129ft 0kts
07-Feb-20 18:34 33.941693 -118.379699 143 129ft 0kts
07-Feb-20 18:35 33.941693 -118.379699 143 129ft 0kts
07-Feb-20 18:36 33.941693 -118.379699 143 129ft 0kts
07-Feb-20 18:37 33.941693 -118.379699 143 129ft 0kts
07-Feb-20 18:38 33.941693 -118.379699 143 129ft 0kts
07-Feb-20 18:39 33.941693 -118.379699 143 129ft 0kts
07-Feb-20 18:40 33.941693 -118.379699 143 129ft 0kts
07-Feb-20 18:41 33.941693 -118.379699 143 129ft 0kts
07-Feb-20 18:42 33.941693 -118.379699 143 129ft 0kts
07-Feb-20 18:43 33.941693 -118.379699 143 129ft 0kts
07-Feb-20 18:44 33.941693 -118.379699 143 129ft 0kts
07-Feb-20 18:45 33.941582 -118.379736 235 129ft 0kts
07-Feb-20 18:46 33.940685 -118.380065 174 129ft 0kts
07-Feb-20 18:47 33.940686 -118.380065 174 129ft 0kts
07-Feb-20 18:48 33.940686 -118.380065 174 129ft 0kts
07-Feb-20 18:49 33.940686 -118.380065 174 129ft 0kts
07-Feb-20 18:50 33.940561 -118.380050 174 129ft 6kts
07-Feb-20 18:51 33.938170 -118.401173 266 865ft 109kts
07-Feb-20 18:52 33.937122 -118.437402 266 2540ft 117kts
07-Feb-20 18:53 33.935825 -118.488133 266 2494ft 168kts
07-Feb-20 18:54 33.925173 -118.538086 196 2728ft 158kts
07-Feb-20 18:55 33.890167 -118.512253 142 3877ft 151kts
07-Feb-20 18:56 33.856685 -118.478331 142 4498ft 169kts
07-Feb-20 18:57 33.818474 -118.440962 142 4628ft 180kts
07-Feb-20 18:58 33.778554 -118.402772 142 4630ft 185kts
07-Feb-20 18:59 33.747207 -118.357254 110 4756ft 177kts
07-Feb-20 19:00 33.730420 -118.302948 110 5369ft 170kts
07-Feb-20 19:01 33.713474 -118.248296 110 5626ft 182kts
07-Feb-20 19:02 33.690739 -118.192319 132 5471ft 190kts
07-Feb-20 19:03 33.651202 -118.151741 139 5472ft 186kts
07-Feb-20 19:04 33.610631 -118.111576 141 5472ft 187kts
07-Feb-20 19:05 33.570478 -118.071972 140 5472ft 185kts
07-Feb-20 19:06 33.531047 -118.033063 140 5804ft 170kts
07-Feb-20 19:07 33.496261 -117.998745 140 6689ft 158kts
07-Feb-20 19:08 33.462220 -117.965260 139 7466ft 158kts
07-Feb-20 19:09 33.425096 -117.928778 139 7501ft 180kts
07-Feb-20 19:10 33.385630 -117.890010 139 7500ft 183kts
07-Feb-20 19:11 33.346025 -117.851156 139 7500ft 183kts
07-Feb-20 19:12 33.306375 -117.812311 139 7509ft 184kts
07-Feb-20 19:13 33.266575 -117.773361 139 7509ft 184kts
07-Feb-20 19:14 33.225738 -117.733467 140 7116ft 196kts
07-Feb-20 19:15 33.183184 -117.691931 140 6583ft 198kts
07-Feb-20 19:16 33.143048 -117.652764 139 5951ft 163kts
07-Feb-20 19:17 33.114200 -117.616668 86 5036ft 150kts
07-Feb-20 19:18 33.121038 -117.568660 82 4110ft 144kts
07-Feb-20 19:19 33.119885 -117.520449 94 3484ft 150kts
07-Feb-20 19:20 33.112618 -117.469068 100 3487ft 161kts
07-Feb-20 19:21 33.100471 -117.416820 125 3487ft 169kts
07-Feb-20 19:23 33.071965 -117.371444 126 3486ft 170kts
07-Feb-20 19:24 33.034277 -117.340098 150 3486ft 171kts
07-Feb-20 19:25 32.991261 -117.315391 159 3486ft 171kts
07-Feb-20 19:26 32.946974 -117.294363 158 3486ft 171kts
07-Feb-20 19:27 32.901817 -117.274191 159 3486ft 173kts
07-Feb-20 19:28 32.856477 -117.254278 161 3486ft 173kts
07-Feb-20 19:29 32.811827 -117.232873 149 3495ft 174kts
07-Feb-20 19:30 32.768900 -117.204957 151 3495ft 176kts
07-Feb-20 19:31 32.738165 -117.164806 99 1659ft 162kts
07-Feb-20 19:32 32.724667 -117.127518 113 776ft 117kts
07-Feb-20 19:33 32.725660 -117.141935 28 950ft 96kts
07-Feb-20 19:34 32.723065 -117.148206 295 677ft 101kts
07-Feb-20 19:35 32.730939 -117.179146 291 102ft 101kts
07-Feb-20 19:36 32.733967 -117.188063 17 21ft 0kts
07-Feb-20 19:37 32.733723 -117.185509 103 21ft 23kts
07-Feb-20 19:38 32.732130 -117.179030 106 21ft 21kts
07-Feb-20 19:39 32.732532 -117.177263 29 21ft 0kts
07-Feb-20 19:40 32.732532 -117.177263 29 21ft 0kts

Navigation Log

Ident Type
Flight plan parsing failed, navigation log unavailable